TimeEET,TemperatureF,Dew PointF,Humidity,Sea Level PressureIn,VisibilityMPH,Wind Direction,Wind SpeedMPH,Gust SpeedMPH,PrecipitationIn,Events,Conditions,WindDirDegrees,DateUTC
12:50 AM,14.0,10.4,86,30.30,-9999.0,SE,4.6,-,N/A,,Clear,130,2013-01-02 22:50:00
1:50 AM,17.6,12.2,79,30.30,-9999.0,SE,6.9,-,N/A,,Clear,130,2013-01-02 23:50:00
2:00 AM,23,18,73,,9,East,1.2,,,,,90,2013-01-03 00:00:00
2:50 AM,15.8,10.4,79,30.30,-9999.0,ESE,6.9,-,N/A,,Clear,120,2013-01-03 00:50:00
3:50 AM,17.6,12.2,79,30.30,-9999.0,SSE,3.5,-,N/A,,Clear,150,2013-01-03 01:50:00
4:50 AM,12.2,6.8,79,30.30,-9999.0,SSE,4.6,-,N/A,,Clear,150,2013-01-03 02:50:00
5:50 AM,12.2,8.6,85,30.30,-9999.0,SE,3.5,-,N/A,,Clear,130,2013-01-03 03:50:00
6:50 AM,10.4,8.6,92,30.33,-9999.0,SSE,3.5,-,N/A,,Clear,150,2013-01-03 04:50:00
7:50 AM,12.2,10.4,92,30.33,-9999.0,South,3.5,-,N/A,,Clear,170,2013-01-03 05:50:00
8:00 AM,22,15,66,,9,East,1.2,,,,,80,2013-01-03 06:00:00
8:50 AM,17.6,10.4,73,30.33,-9999.0,SE,3.5,-,N/A,,Clear,140,2013-01-03 06:50:00
9:50 AM,23.0,15.8,74,30.33,-9999.0,South,4.6,-,N/A,,Clear,170,2013-01-03 07:50:00
10:50 AM,24.8,17.6,74,30.33,-9999.0,SSE,4.6,-,N/A,,Clear,160,2013-01-03 08:50:00
11:50 AM,28.4,21.2,74,30.30,-9999.0,SSE,3.5,-,N/A,,Clear,160,2013-01-03 09:50:00
12:50 PM,32.0,23.0,69,30.30,-9999.0,Calm,Calm,-,N/A,,Clear,0,2013-01-03 10:50:00
1:50 PM,30.2,23.0,75,30.30,-9999.0,SSW,4.6,-,N/A,,Clear,200,2013-01-03 11:50:00
2:00 PM,37,20,36,,9,NE,2.3,,,,,50,2013-01-03 12:00:00
2:50 PM,30.2,23.0,75,30.30,-9999.0,SSW,3.5,-,N/A,,Clear,200,2013-01-03 12:50:00
3:50 PM,24.8,19.4,80,30.27,-9999.0,South,3.5,-,N/A,,Clear,170,2013-01-03 13:50:00
4:50 PM,21.2,15.8,80,30.27,-9999.0,SE,3.5,-,N/A,,Clear,140,2013-01-03 14:50:00
5:50 PM,21.2,19.4,93,30.27,-9999.0,Variable,1.2,-,N/A,,Clear,0,2013-01-03 15:50:00
6:50 PM,19.4,17.6,93,30.27,-9999.0,Calm,Calm,-,N/A,,Clear,0,2013-01-03 16:50:00
7:50 PM,15.8,14.0,93,30.27,-9999.0,SSE,5.8,-,N/A,,Clear,160,2013-01-03 17:50:00
8:00 PM,27,20,67,,9,Calm,Calm,,,,,,2013-01-03 18:00:00
8:50 PM,21.2,19.4,93,30.27,-9999.0,SSE,4.6,-,N/A,,Clear,160,2013-01-03 18:50:00
9:50 PM,21.2,17.6,86,30.24,-9999.0,SSE,3.5,-,N/A,,Clear,150,2013-01-03 19:50:00
10:50 PM,24.8,21.2,86,30.24,-9999.0,South,4.6,-,N/A,,Clear,170,2013-01-03 20:50:00
11:50 PM,24.8,21.2,86,30.24,-9999.0,ESE,4.6,-,N/A,,Clear,110,2013-01-03 21:50:00